Time;durP1;ratioP1;P1;durP2;ratioP2;P2;SDS_P1;SDS_P2;PMS_P1;PMS_P2;Temp;Humidity;BMP_temperature;BMP_pressure;BME280_temperature;BME280_humidity;BME280_pressure;Samples;Min_cycle;Max_cycle;Signal;HPM_P1;HPM_P2
2022/07/18 00:01:40;;;;;;;;;;;;;;;11.20;54.24;101531.02;1720799;83;20268;-74
2022/07/18 00:04:06;;;;;;;;;;;;;;;11.19;54.33;101531.99;1704828;84;21825;-74
2022/07/18 00:06:32;;;;;;;;;;;;;;;11.18;54.42;101531.67;1706808;83;20270;-74
2022/07/18 00:08:58;;;;;;;;;;;;;;;11.19;54.51;101533.33;1718703;82;20294;-74
2022/07/18 00:11:24;;;;;;;;;;;;;;;11.17;54.59;101532.64;1704920;84;20164;-74
2022/07/18 00:13:51;;;;;;;;;;;;;;;11.17;54.67;101539.32;1704816;84;20306;-74
2022/07/18 00:16:17;;;;;;;;;;;;;;;11.17;54.76;101537.98;1705127;84;21145;-74
2022/07/18 00:18:43;;;;;;;;;;;;;;;11.16;54.85;101537.63;1704952;84;20150;-74
2022/07/18 00:21:09;;;;;;;;;;;;;;;11.17;54.93;101534.47;1704683;83;20197;-74
2022/07/18 00:23:35;;;;;;;;;;;;;;;11.15;55.02;101531.97;1704912;84;20346;-74
2022/07/18 00:26:01;;;;;;;;;;;;;;;11.14;55.10;101529.42;1704970;84;20291;-74
2022/07/18 00:28:27;;;;;;;;;;;;;;;11.13;55.20;101528.58;1705062;84;21205;-74
2022/07/18 00:30:53;;;;;;;;;;;;;;;11.13;55.28;101529.91;1704932;84;20780;-74
2022/07/18 00:33:18;;;;;;;;;;;;;;;11.13;55.35;101531.73;1704717;84;20629;-75
2022/07/18 00:35:44;;;;;;;;;;;;;;;11.13;55.42;101528.58;1704987;84;20239;-75
2022/07/18 00:38:12;;;;;;;;;;;;;;;11.11;55.50;101527.90;1704814;84;20154;-74
2022/07/18 00:40:38;;;;;;;;;;;;;;;11.12;55.57;101534.90;1705259;84;21207;-74
2022/07/18 00:43:04;;;;;;;;;;;;;;;11.11;55.65;101533.23;1704932;84;20220;-74
2022/07/18 00:45:30;;;;;;;;;;;;;;;11.09;55.71;101529.86;1716875;83;20197;-74
2022/07/18 00:47:56;;;;;;;;;;;;;;;11.12;55.76;101530.89;1708860;83;20211;-74
2022/07/18 00:50:23;;;;;;;;;;;;;;;11.12;55.81;101532.75;1705372;84;20237;-74
2022/07/18 00:52:48;;;;;;;;;;;;;;;11.12;55.89;101537.56;1705032;84;21047;-75
2022/07/18 00:55:14;;;;;;;;;;;;;;;11.13;55.93;101540.59;1704882;84;20272;-74
2022/07/18 00:57:41;;;;;;;;;;;;;;;11.15;56.01;101545.31;1704852;84;20854;-74
2022/07/18 01:02:53;;;;;;;;;;;;;;;11.21;56.11;101544.72;1705045;84;20170;-74
2022/07/18 01:05:19;;;;;;;;;;;;;;;11.25;56.18;101543.94;1704235;84;21171;-74
2022/07/18 01:07:44;;;;;;;;;;;;;;;11.26;56.24;101547.78;1704851;84;20868;-74
2022/07/18 01:10:10;;;;;;;;;;;;;;;11.28;56.30;101541.81;1705027;84;20287;-74
2022/07/18 01:12:36;;;;;;;;;;;;;;;11.31;56.36;101541.52;1705204;84;20156;-74
2022/07/18 01:15:03;;;;;;;;;;;;;;;11.33;56.40;101546.20;1705199;84;20445;-74
2022/07/18 01:17:29;;;;;;;;;;;;;;;11.35;56.46;101533.56;1704798;84;21122;-74
2022/07/18 01:19:55;;;;;;;;;;;;;;;11.36;56.52;101535.75;1705044;84;20231;-74
2022/07/18 01:22:21;;;;;;;;;;;;;;;11.38;56.59;101537.77;1685318;84;20211;-74
2022/07/18 01:24:47;;;;;;;;;;;;;;;11.40;56.63;101537.95;1705105;84;20196;-74
2022/07/18 01:27:18;;;;;;;;;;;;;;;11.40;56.69;101536.62;1700943;83;20469;-74
2022/07/18 01:29:44;;;;;;;;;;;;;;;11.43;56.75;101537.66;1698929;84;21136;-74
2022/07/18 01:32:10;;;;;;;;;;;;;;;11.45;56.82;101541.53;1700205;84;20145;-74
2022/07/18 01:34:36;;;;;;;;;;;;;;;11.46;56.88;101538.72;1704814;84;20200;-74
2022/07/18 01:37:02;;;;;;;;;;;;;;;11.49;56.93;101546.92;1701450;84;20450;-74
2022/07/18 01:39:28;;;;;;;;;;;;;;;11.50;56.99;101541.42;1705030;84;20149;-74
2022/07/18 01:41:59;;;;;;;;;;;;;;;11.52;57.01;101539.95;1701609;84;21153;-75
2022/07/18 01:44:25;;;;;;;;;;;;;;;11.52;57.06;101542.13;1700629;84;20206;-74
2022/07/18 01:46:51;;;;;;;;;;;;;;;11.54;57.09;101544.14;1705014;84;20170;-74
2022/07/18 01:49:18;;;;;;;;;;;;;;;11.53;57.14;101545.16;1705081;84;20259;-74
2022/07/18 01:51:51;;;;;;;;;;;;;;;11.54;57.16;101542.81;1705118;84;20443;-74
2022/07/18 01:54:20;;;;;;;;;;;;;;;11.56;57.21;101541.34;1705025;84;21093;-74
2022/07/18 01:56:46;;;;;;;;;;;;;;;11.59;57.20;101537.52;1705332;83;20466;-75
2022/07/18 01:59:11;;;;;;;;;;;;;;;11.61;57.21;101541.72;1710034;83;20200;-74
2022/07/18 02:01:37;;;;;;;;;;;;;;;11.63;57.26;101542.92;1710348;84;20700;-75
2022/07/18 02:04:03;;;;;;;;;;;;;;;11.63;57.29;101538.91;1710524;84;20219;-75
2022/07/18 02:06:29;;;;;;;;;;;;;;;11.65;57.30;101532.91;1710346;84;21185;-75
2022/07/18 02:08:55;;;;;;;;;;;;;;;11.68;57.31;101540.66;1706823;84;20275;-75
2022/07/18 02:11:21;;;;;;;;;;;;;;;11.69;57.31;101533.80;1707499;83;20223;-74
2022/07/18 02:13:47;;;;;;;;;;;;;;;11.71;57.30;101529.70;1710310;84;20228;-75
2022/07/18 02:16:13;;;;;;;;;;;;;;;11.72;57.32;101529.52;1710407;84;20732;-74
2022/07/18 02:18:39;;;;;;;;;;;;;;;11.75;57.29;101529.75;1710169;83;21771;-75
2022/07/18 02:21:05;;;;;;;;;;;;;;;11.77;57.31;101530.42;1710276;84;20267;-74
2022/07/18 02:23:31;;;;;;;;;;;;;;;11.79;57.33;101525.75;1710265;84;20134;-75
2022/07/18 02:25:57;;;;;;;;;;;;;;;11.81;57.34;101531.81;1710294;83;20845;-75
2022/07/18 02:28:22;;;;;;;;;;;;;;;11.83;57.35;101527.98;1710484;84;20192;-75
2022/07/18 02:30:48;;;;;;;;;;;;;;;11.85;57.38;101529.19;1718686;83;21071;-75
2022/07/18 02:33:15;;;;;;;;;;;;;;;11.87;57.37;101522.69;1693179;84;20238;-75
2022/07/18 02:35:41;;;;;;;;;;;;;;;11.91;57.39;101523.23;1703520;83;20201;-75
2022/07/18 02:38:07;;;;;;;;;;;;;;;11.94;57.38;101537.63;1705355;84;20971;-75
2022/07/18 02:40:33;;;;;;;;;;;;;;;11.96;57.39;101531.65;1710016;84;20298;-74
2022/07/18 02:42:59;;;;;;;;;;;;;;;11.98;57.43;101535.84;1695665;83;21164;-75
2022/07/18 02:45:25;;;;;;;;;;;;;;;12.03;57.47;101539.41;1713032;83;20179;-75
2022/07/18 02:47:50;;;;;;;;;;;;;;;12.05;57.50;101544.09;1710297;83;21011;-75
2022/07/18 02:50:16;;;;;;;;;;;;;;;12.09;57.53;101542.81;1712059;83;20259;-75
2022/07/18 02:52:42;;;;;;;;;;;;;;;12.15;57.55;101542.69;1712592;83;20184;-75
2022/07/18 02:55:09;;;;;;;;;;;;;;;12.18;57.57;101536.53;1710003;84;21178;-74
2022/07/18 02:57:35;;;;;;;;;;;;;;;12.20;57.59;101538.58;1707336;84;20193;-74
2022/07/18 03:00:04;;;;;;;;;;;;;;;12.19;57.67;101534.22;1705485;84;20158;-74
2022/07/18 03:02:29;;;;;;;;;;;;;;;12.19;57.72;101528.86;1704685;84;20174;-74
2022/07/18 03:04:55;;;;;;;;;;;;;;;12.19;57.77;101528.02;1708706;83;20152;-74
2022/07/18 03:07:21;;;;;;;;;;;;;;;12.19;57.82;101525.34;1705687;84;21822;-74
2022/07/18 03:09:47;;;;;;;;;;;;;;;12.19;57.84;101521.33;1703195;84;20463;-74
2022/07/18 03:12:13;;;;;;;;;;;;;;;12.21;57.85;101518.84;1706176;83;20211;-74
2022/07/18 03:14:39;;;;;;;;;;;;;;;12.22;57.91;101529.89;1705839;83;20817;-74
2022/07/18 03:17:05;;;;;;;;;;;;;;;12.21;57.96;101529.54;1706169;83;20294;-74
2022/07/18 03:19:30;;;;;;;;;;;;;;;12.24;58.00;101531.94;1704002;84;21067;-74
2022/07/18 03:21:56;;;;;;;;;;;;;;;12.25;58.03;101533.59;1707883;84;20808;-74
2022/07/18 03:24:22;;;;;;;;;;;;;;;12.26;58.04;101537.95;1705424;83;20222;-74
2022/07/18 03:26:48;;;;;;;;;;;;;;;12.24;58.06;101539.95;1700779;84;20223;-74
2022/07/18 03:29:14;;;;;;;;;;;;;;;12.25;58.08;101537.61;1710192;84;20192;-74
2022/07/18 03:31:40;;;;;;;;;;;;;;;12.24;58.13;101537.78;1703699;84;21791;-74
2022/07/18 03:34:06;;;;;;;;;;;;;;;12.22;58.19;101536.58;1709805;84;20181;-74
2022/07/18 03:36:32;;;;;;;;;;;;;;;12.23;58.26;101532.92;1710062;84;20274;-74
2022/07/18 03:38:57;;;;;;;;;;;;;;;12.25;58.32;101526.91;1706909;84;20168;-74
2022/07/18 03:41:23;;;;;;;;;;;;;;;12.31;58.38;101528.14;1705659;84;20172;-74
2022/07/18 03:43:49;;;;;;;;;;;;;;;12.36;58.40;101529.36;1707480;83;21799;-74
2022/07/18 03:46:15;;;;;;;;;;;;;;;12.42;58.43;101527.39;1708671;84;20191;-74
2022/07/18 03:48:41;;;;;;;;;;;;;;;12.51;58.43;101529.16;1710262;84;20158;-74
2022/07/18 03:51:07;;;;;;;;;;;;;;;12.73;58.45;101529.66;1710161;84;20571;-74
2022/07/18 03:53:33;;;;;;;;;;;;;;;12.95;58.41;101530.47;1700572;84;20308;-74
2022/07/18 03:55:59;;;;;;;;;;;;;;;13.10;58.30;101526.74;1700060;84;21118;-75
2022/07/18 03:58:25;;;;;;;;;;;;;;;13.18;58.24;101528.98;1707238;84;20181;-75
2022/07/18 04:00:51;;;;;;;;;;;;;;;13.75;58.56;101531.91;1704943;84;20287;-75
2022/07/18 04:03:17;;;;;;;;;;;;;;;14.85;58.42;101528.34;1705011;84;20184;-75
2022/07/18 04:05:43;;;;;;;;;;;;;;;15.87;58.10;101534.58;1704999;84;20177;-76
2022/07/18 04:08:09;;;;;;;;;;;;;;;16.95;57.43;101534.80;1704896;84;21088;-75
2022/07/18 04:10:39;;;;;;;;;;;;;;;17.21;56.64;101526.25;1705196;84;20235;-75
2022/07/18 04:13:03;;;;;;;;;;;;;;;17.92;56.52;101532.30;1704856;84;20725;-76
2022/07/18 04:15:29;;;;;;;;;;;;;;;18.88;56.12;101532.33;1705231;84;20239;-76
2022/07/18 04:17:55;;;;;;;;;;;;;;;19.87;55.43;101540.52;1718220;83;20179;-75
2022/07/18 04:20:21;;;;;;;;;;;;;;;20.71;54.60;101530.07;1707892;83;21808;-76
2022/07/18 04:22:58;;;;;;;;;;;;;;;21.49;53.74;101523.72;1705064;84;20168;-76
2022/07/18 04:25:26;;;;;;;;;;;;;;;22.14;52.92;101524.47;1705020;84;20193;-76
2022/07/18 04:27:52;;;;;;;;;;;;;;;22.70;52.06;101521.79;1704828;84;20154;-77
2022/07/18 04:30:19;;;;;;;;;;;;;;;23.17;51.13;101519.78;1704742;84;20239;-76
2022/07/18 04:32:45;;;;;;;;;;;;;;;22.56;50.36;101517.48;1705129;84;21781;-76
2022/07/18 04:35:11;;;;;;;;;;;;;;;22.15;49.81;101517.47;1704782;84;20176;-76
2022/07/18 04:37:40;;;;;;;;;;;;;;;21.68;49.82;101518.72;1705235;84;20669;-76
2022/07/18 04:40:07;;;;;;;;;;;;;;;21.79;49.70;101513.13;1705099;84;20158;-77
2022/07/18 04:42:33;;;;;;;;;;;;;;;22.28;48.83;101516.02;1720835;83;20191;-76
2022/07/18 04:44:59;;;;;;;;;;;;;;;22.21;48.50;101512.51;1705175;84;21820;-76
2022/07/18 04:47:26;;;;;;;;;;;;;;;21.91;48.66;101514.16;1704738;84;20154;-77
2022/07/18 04:49:52;;;;;;;;;;;;;;;21.87;48.88;101514.25;1720721;83;20182;-77
2022/07/18 04:52:18;;;;;;;;;;;;;;;22.08;48.99;101512.60;1704834;84;20240;-77
2022/07/18 04:54:44;;;;;;;;;;;;;;;22.35;49.01;101515.45;1705228;84;20184;-77
2022/07/18 04:57:11;;;;;;;;;;;;;;;22.66;48.92;101511.05;1704520;84;20767;-77
2022/07/18 04:59:38;;;;;;;;;;;;;;;22.86;48.76;101511.73;1709528;84;20448;-77
2022/07/18 05:02:04;;;;;;;;;;;;;;;23.21;48.51;101514.20;1710018;83;20164;-77
2022/07/18 05:04:30;;;;;;;;;;;;;;;23.58;48.03;101512.84;1710369;83;20236;-77
2022/07/18 05:06:56;;;;;;;;;;;;;;;23.27;47.42;101520.09;1710422;84;20323;-77
2022/07/18 05:09:22;;;;;;;;;;;;;;;22.45;47.02;101511.42;1710444;84;21160;-77
2022/07/18 05:11:48;;;;;;;;;;;;;;;21.97;46.97;101516.00;1710423;84;20271;-77
2022/07/18 05:14:14;;;;;;;;;;;;;;;21.68;46.81;101515.16;1710112;84;20263;-77
2022/07/18 05:16:39;;;;;;;;;;;;;;;21.36;46.60;101513.72;1710414;84;20604;-77
2022/07/18 05:19:05;;;;;;;;;;;;;;;21.02;46.50;101522.64;1710200;84;20954;-77
2022/07/18 05:21:31;;;;;;;;;;;;;;;20.90;46.39;101510.23;1710313;84;21184;-77
2022/07/18 05:23:57;;;;;;;;;;;;;;;20.80;46.24;101514.73;1710328;84;20191;-77
2022/07/18 05:26:23;;;;;;;;;;;;;;;20.79;46.15;101516.31;1710486;84;20255;-77
2022/07/18 05:28:49;;;;;;;;;;;;;;;20.81;46.03;101514.21;1710389;83;20175;-77
2022/07/18 05:31:15;;;;;;;;;;;;;;;20.80;45.82;101516.60;1710532;84;20156;-77
2022/07/18 05:33:40;;;;;;;;;;;;;;;21.23;45.69;101513.77;1710543;84;21804;-78
2022/07/18 05:36:07;;;;;;;;;;;;;;;21.56;45.43;101512.83;1709821;83;20263;-78
2022/07/18 05:38:33;;;;;;;;;;;;;;;21.51;45.19;101513.98;1710353;84;20207;-77
2022/07/18 05:40:59;;;;;;;;;;;;;;;21.28;44.88;101511.26;1710294;84;20224;-78
2022/07/18 05:43:25;;;;;;;;;;;;;;;21.08;44.76;101510.41;1694909;84;20190;-78
2022/07/18 05:45:51;;;;;;;;;;;;;;;20.84;44.63;101507.01;1706663;83;21142;-78
2022/07/18 05:48:17;;;;;;;;;;;;;;;20.71;44.46;101512.45;1710099;83;20227;-78
2022/07/18 05:50:44;;;;;;;;;;;;;;;20.63;44.39;101510.77;1710342;84;20195;-78
2022/07/18 05:53:11;;;;;;;;;;;;;;;20.67;44.30;101519.33;1709963;84;20153;-77
2022/07/18 05:55:37;;;;;;;;;;;;;;;20.65;44.20;101514.64;1710491;83;20200;-78
2022/07/18 05:58:03;;;;;;;;;;;;;;;20.51;44.10;101513.81;1709643;84;21827;-78
2022/07/18 06:00:29;;;;;;;;;;;;;;;20.38;44.10;101518.68;1704967;84;20192;-77
2022/07/18 06:02:55;;;;;;;;;;;;;;;20.33;44.05;101522.55;1705038;84;20173;-78
2022/07/18 06:05:21;;;;;;;;;;;;;;;20.20;43.91;101519.77;1691501;83;20733;-78
2022/07/18 06:07:48;;;;;;;;;;;;;;;20.13;43.88;101519.43;1713810;82;20443;-77
2022/07/18 06:10:13;;;;;;;;;;;;;;;20.10;43.87;101513.91;1705092;84;21176;-77
2022/07/18 06:12:39;;;;;;;;;;;;;;;20.10;43.86;101522.55;1705112;84;20763;-77
2022/07/18 06:15:07;;;;;;;;;;;;;;;20.12;43.80;101519.97;1704818;84;20248;-78
2022/07/18 06:17:33;;;;;;;;;;;;;;;20.24;43.78;101518.31;1705078;84;20176;-77
2022/07/18 06:19:59;;;;;;;;;;;;;;;20.31;43.75;101513.77;1704951;83;20177;-77
2022/07/18 06:22:24;;;;;;;;;;;;;;;20.40;43.74;101517.13;1704896;84;21158;-78
2022/07/18 06:24:51;;;;;;;;;;;;;;;20.53;43.70;101512.23;1705066;84;20201;-78
2022/07/18 06:27:16;;;;;;;;;;;;;;;20.68;43.68;101512.87;1704964;83;20157;-77
2022/07/18 06:29:42;;;;;;;;;;;;;;;20.80;43.56;101511.17;1704870;84;20180;-78
2022/07/18 06:32:08;;;;;;;;;;;;;;;20.93;43.41;101508.48;1707781;83;20192;-78
2022/07/18 06:34:34;;;;;;;;;;;;;;;21.02;43.27;101509.91;1717760;81;20469;-77
2022/07/18 06:37:00;;;;;;;;;;;;;;;20.97;43.16;101508.34;1704881;84;20184;-78
2022/07/18 06:39:26;;;;;;;;;;;;;;;20.94;43.09;101503.34;1712381;83;20260;-78
2022/07/18 06:41:52;;;;;;;;;;;;;;;20.83;42.98;101498.03;1711022;83;20701;-77
2022/07/18 06:44:17;;;;;;;;;;;;;;;20.96;42.91;101494.48;1705246;83;20275;-78
2022/07/18 06:46:43;;;;;;;;;;;;;;;21.16;42.85;101491.23;1719987;83;21174;-78
2022/07/18 06:49:09;;;;;;;;;;;;;;;21.34;42.79;101492.75;1704798;84;20207;-78
2022/07/18 06:51:35;;;;;;;;;;;;;;;21.55;42.65;101490.80;1710314;83;20277;-78
2022/07/18 06:54:01;;;;;;;;;;;;;;;21.81;42.61;101487.97;1714860;83;20148;-78
2022/07/18 06:56:27;;;;;;;;;;;;;;;22.32;42.42;101487.34;1708016;83;20268;-78
2022/07/18 06:58:53;;;;;;;;;;;;;;;22.72;42.18;101481.62;1718895;83;21141;-78
2022/07/18 07:01:19;;;;;;;;;;;;;;;23.06;41.83;101487.87;1709874;84;20325;-78
2022/07/18 07:03:46;;;;;;;;;;;;;;;23.25;41.51;101481.91;1710287;84;20176;-78
2022/07/18 07:06:12;;;;;;;;;;;;;;;23.43;41.25;101480.58;1710020;84;20158;-78
2022/07/18 07:08:38;;;;;;;;;;;;;;;23.71;41.02;101481.37;1710214;84;20138;-78
2022/07/18 07:11:04;;;;;;;;;;;;;;;24.06;40.74;101479.62;1709944;84;21576;-78
2022/07/18 07:13:30;;;;;;;;;;;;;;;24.22;40.42;101479.50;1710074;84;20441;-78
2022/07/18 07:15:56;;;;;;;;;;;;;;;24.40;40.15;101473.98;1710218;84;20274;-78
2022/07/18 07:18:22;;;;;;;;;;;;;;;24.28;39.67;101476.67;1710093;83;20696;-78
2022/07/18 07:20:48;;;;;;;;;;;;;;;24.36;39.53;101468.16;1700003;84;20179;-78
2022/07/18 07:23:13;;;;;;;;;;;;;;;24.53;39.24;101468.82;1700418;84;21682;-78
2022/07/18 07:25:39;;;;;;;;;;;;;;;24.72;39.10;101468.50;1710153;84;20771;-78
2022/07/18 07:28:05;;;;;;;;;;;;;;;25.05;38.89;101473.36;1709999;84;20211;-78
2022/07/18 07:30:32;;;;;;;;;;;;;;;25.35;38.71;101473.20;1710236;84;20631;-79
2022/07/18 07:32:59;;;;;;;;;;;;;;;25.46;38.36;101471.52;1709738;83;20169;-78
2022/07/18 07:35:24;;;;;;;;;;;;;;;25.45;38.21;101479.41;1709249;84;21787;-78
2022/07/18 07:37:52;;;;;;;;;;;;;;;25.61;38.00;101475.96;1704248;84;20255;-79
2022/07/18 07:40:18;;;;;;;;;;;;;;;25.73;37.81;101478.09;1710219;83;20452;-79
2022/07/18 07:42:44;;;;;;;;;;;;;;;25.92;37.67;101471.91;1701921;84;20680;-79
2022/07/18 07:45:11;;;;;;;;;;;;;;;26.01;37.23;101475.36;1705892;83;20718;-79
2022/07/18 07:47:37;;;;;;;;;;;;;;;26.09;37.11;101479.60;1716075;83;21859;-79
2022/07/18 07:50:04;;;;;;;;;;;;;;;26.11;36.79;101469.23;1689550;84;20101;-78
2022/07/18 07:52:30;;;;;;;;;;;;;;;25.95;36.54;101476.34;1694374;84;20481;-79
2022/07/18 07:54:56;;;;;;;;;;;;;;;26.00;36.45;101479.16;1702829;84;21209;-78
2022/07/18 07:57:21;;;;;;;;;;;;;;;25.95;36.16;101476.34;1705331;84;20946;-79
2022/07/18 07:59:47;;;;;;;;;;;;;;;25.98;36.08;101478.59;1705761;84;21799;-79
2022/07/18 08:02:14;;;;;;;;;;;;;;;26.05;35.85;101479.27;1686727;84;20745;-79
2022/07/18 08:04:41;;;;;;;;;;;;;;;25.99;35.65;101476.16;1701877;84;20444;-79
2022/07/18 08:07:07;;;;;;;;;;;;;;;26.03;35.53;101476.49;1697681;84;20629;-79
2022/07/18 08:09:33;;;;;;;;;;;;;;;26.11;35.47;101479.64;1697678;84;20130;-79
2022/07/18 08:11:59;;;;;;;;;;;;;;;26.01;35.33;101475.36;1703814;84;22338;-79
2022/07/18 08:14:25;;;;;;;;;;;;;;;26.07;35.33;101474.37;1699871;84;20184;-79
2022/07/18 08:16:50;;;;;;;;;;;;;;;26.09;35.14;101478.23;1701813;84;20271;-80
2022/07/18 08:19:16;;;;;;;;;;;;;;;26.22;35.13;101469.20;1682885;84;21285;-79
2022/07/18 08:21:42;;;;;;;;;;;;;;;26.36;35.06;101472.98;1704069;84;20276;-80
2022/07/18 08:24:08;;;;;;;;;;;;;;;26.55;34.97;101466.20;1699700;84;21844;-80
2022/07/18 08:26:35;;;;;;;;;;;;;;;26.54;34.56;101465.36;1691760;83;20251;-80
2022/07/18 08:29:02;;;;;;;;;;;;;;;26.42;34.31;101471.48;1713663;83;20443;-80
2022/07/18 08:31:28;;;;;;;;;;;;;;;26.54;34.25;101472.74;1696207;84;21655;-80
2022/07/18 08:33:54;;;;;;;;;;;;;;;26.54;34.16;101469.47;1703295;84;20215;-79
2022/07/18 08:36:20;;;;;;;;;;;;;;;26.62;34.10;101464.13;1699621;84;21866;-80
2022/07/18 08:38:46;;;;;;;;;;;;;;;26.65;34.00;101456.77;1702623;84;20203;-80
2022/07/18 08:41:12;;;;;;;;;;;;;;;26.72;33.99;101457.43;1703767;84;20192;-80
2022/07/18 08:43:38;;;;;;;;;;;;;;;26.68;33.82;101458.47;1694438;84;20742;-80
2022/07/18 08:46:05;;;;;;;;;;;;;;;26.52;33.82;101462.59;1700660;84;20176;-81
2022/07/18 08:48:31;;;;;;;;;;;;;;;26.53;33.65;101471.11;1701883;84;21882;-80
2022/07/18 08:50:57;;;;;;;;;;;;;;;26.40;33.62;101457.73;1679359;84;20805;-78
2022/07/18 08:53:22;;;;;;;;;;;;;;;26.36;33.57;101463.41;1693357;83;20224;-80
2022/07/18 08:55:48;;;;;;;;;;;;;;;26.37;33.58;101460.97;1702461;84;20688;-79
2022/07/18 08:58:15;;;;;;;;;;;;;;;26.42;33.41;101456.96;1701637;84;20270;-79
2022/07/18 09:00:41;;;;;;;;;;;;;;;26.37;33.36;101454.13;1701398;84;21826;-80
2022/07/18 09:03:07;;;;;;;;;;;;;;;26.42;33.29;101451.49;1706769;83;20109;-81
2022/07/18 09:05:33;;;;;;;;;;;;;;;26.47;33.25;101459.77;1705513;84;20711;-80
2022/07/18 09:08:19;;;;;;;;;;;;;;;26.32;33.03;101452.96;1706762;84;20667;-80
2022/07/18 09:10:51;;;;;;;;;;;;;;;26.31;32.98;101458.17;1691231;84;20121;-80
2022/07/18 09:13:19;;;;;;;;;;;;;;;26.40;32.93;101461.84;1706229;83;21842;-80
2022/07/18 09:16:03;;;;;;;;;;;;;;;26.20;32.77;101457.70;1692921;82;20118;-80
2022/07/18 09:18:30;;;;;;;;;;;;;;;26.21;32.87;101455.23;1702858;82;20209;-80
2022/07/18 09:20:58;;;;;;;;;;;;;;;26.36;32.87;101456.56;1695263;84;20620;-78
2022/07/18 09:23:29;;;;;;;;;;;;;;;26.53;32.89;101451.38;1700074;84;20120;-79
2022/07/18 09:25:55;;;;;;;;;;;;;;;26.63;32.72;101461.69;1706205;84;22616;-80
2022/07/18 09:28:21;;;;;;;;;;;;;;;26.68;32.73;101459.00;1706955;84;20172;-80
2022/07/18 09:30:47;;;;;;;;;;;;;;;26.73;32.72;101451.72;1707435;84;20152;-79
2022/07/18 09:33:13;;;;;;;;;;;;;;;26.83;32.62;101448.86;1703912;84;21660;-79
2022/07/18 09:35:52;;;;;;;;;;;;;;;26.98;32.46;101456.77;1707405;83;20184;-79
2022/07/18 09:38:20;;;;;;;;;;;;;;;27.05;32.33;101453.30;1706100;83;21805;-79
2022/07/18 09:40:47;;;;;;;;;;;;;;;27.10;32.24;101457.47;1707136;84;20132;-79
2022/07/18 09:43:15;;;;;;;;;;;;;;;27.06;32.11;101450.83;1676122;84;20113;-79
2022/07/18 09:45:44;;;;;;;;;;;;;;;27.10;32.01;101446.51;1717567;82;20554;-79
2022/07/18 09:48:12;;;;;;;;;;;;;;;26.99;31.81;101451.55;1706013;84;20147;-79
2022/07/18 09:51:03;;;;;;;;;;;;;;;26.87;31.71;101448.11;1707404;84;21877;-79
2022/07/18 09:53:34;;;;;;;;;;;;;;;26.82;31.62;101452.13;1707719;83;20444;-79
2022/07/18 09:56:08;;;;;;;;;;;;;;;26.71;31.47;101451.66;1707821;83;20141;-79
2022/07/18 09:58:41;;;;;;;;;;;;;;;26.76;31.59;101445.73;1700502;84;21281;-79
2022/07/18 10:01:09;;;;;;;;;;;;;;;27.10;31.59;101441.03;1708699;83;20420;-79
2022/07/18 10:03:35;;;;;;;;;;;;;;;27.22;31.60;101437.64;1701802;83;21867;-79
2022/07/18 10:06:02;;;;;;;;;;;;;;;27.30;31.49;101444.59;1707715;83;20148;-79
2022/07/18 10:08:29;;;;;;;;;;;;;;;27.35;31.50;101439.70;1709378;84;20161;-79
2022/07/18 10:10:56;;;;;;;;;;;;;;;27.40;31.43;101439.77;1695560;83;20731;-79
2022/07/18 10:13:22;;;;;;;;;;;;;;;27.49;31.38;101439.63;1691463;84;20167;-79
2022/07/18 10:15:50;;;;;;;;;;;;;;;27.45;31.26;101441.22;1705960;84;22738;-78
2022/07/18 10:18:18;;;;;;;;;;;;;;;27.56;31.30;101434.77;1699366;84;20786;-78
2022/07/18 10:20:59;;;;;;;;;;;;;;;27.55;31.19;101429.02;1704636;83;20161;-79
2022/07/18 10:23:29;;;;;;;;;;;;;;;27.45;31.02;101426.14;1710102;83;20658;-79
2022/07/18 10:26:13;;;;;;;;;;;;;;;27.51;31.08;101425.14;1715724;83;20110;-79
2022/07/18 10:29:01;;;;;;;;;;;;;;;27.47;30.85;101423.99;1706284;84;21770;-79
2022/07/18 10:31:38;;;;;;;;;;;;;;;27.34;30.82;101425.73;1715749;83;20774;-78
2022/07/18 10:34:09;;;;;;;;;;;;;;;27.44;30.88;101421.20;1707446;84;20440;-79
2022/07/18 10:36:37;;;;;;;;;;;;;;;27.49;30.86;101417.70;1715716;83;20817;-79
2022/07/18 10:39:20;;;;;;;;;;;;;;;27.62;30.79;101414.01;1707603;84;20140;-79
2022/07/18 10:41:49;;;;;;;;;;;;;;;27.58;30.69;101414.27;1712943;83;21941;-79
2022/07/18 10:44:31;;;;;;;;;;;;;;;27.40;30.54;101409.63;1706736;83;20921;-79
2022/07/18 10:47:06;;;;;;;;;;;;;;;27.32;30.54;101404.05;1715723;83;20158;-79
2022/07/18 10:49:48;;;;;;;;;;;;;;;27.36;30.59;101404.38;1707456;84;20663;-79
2022/07/18 10:52:32;;;;;;;;;;;;;;;27.43;30.55;101414.59;1705054;83;20470;-79
2022/07/18 10:55:08;;;;;;;;;;;;;;;27.38;30.51;101410.41;1707528;84;22559;-79
2022/07/18 10:57:39;;;;;;;;;;;;;;;27.40;30.52;101408.26;1715704;83;20135;-79
2022/07/18 11:00:10;;;;;;;;;;;;;;;27.43;30.50;101399.52;1704903;84;20117;-79
2022/07/18 11:02:38;;;;;;;;;;;;;;;27.29;30.34;101401.30;1700081;84;20755;-79
2022/07/18 11:05:26;;;;;;;;;;;;;;;27.18;30.20;101399.51;1701401;83;20162;-79
2022/07/18 11:08:04;;;;;;;;;;;;;;;27.24;30.31;101398.48;1706467;83;22520;-79
2022/07/18 11:11:01;;;;;;;;;;;;;;;27.39;30.28;101397.00;1700481;84;20138;-79
2022/07/18 11:13:34;;;;;;;;;;;;;;;27.31;30.22;101390.89;1700062;84;20149;-79
2022/07/18 11:16:11;;;;;;;;;;;;;;;27.48;30.25;101383.17;1700140;84;20760;-79
2022/07/18 11:18:47;;;;;;;;;;;;;;;27.67;30.26;101383.09;1700576;84;20177;-79
2022/07/18 11:21:17;;;;;;;;;;;;;;;27.65;30.17;101383.36;1700354;84;21845;-79
2022/07/18 11:23:45;;;;;;;;;;;;;;;27.69;30.18;101379.56;1700256;84;20184;-79
2022/07/18 11:26:16;;;;;;;;;;;;;;;27.77;30.15;101379.90;1710575;83;20137;-79
2022/07/18 11:28:41;;;;;;;;;;;;;;;27.87;30.01;101374.25;1701875;83;21422;-79
2022/07/18 11:31:09;;;;;;;;;;;;;;;27.97;30.01;101364.16;1718720;83;20198;-79
2022/07/18 11:33:37;;;;;;;;;;;;;;;27.88;29.85;101372.59;1705633;83;21839;-79
2022/07/18 11:36:08;;;;;;;;;;;;;;;27.85;29.84;101366.27;1691760;84;20149;-79
2022/07/18 11:38:35;;;;;;;;;;;;;;;27.79;29.66;101365.95;1691438;84;20164;-79
2022/07/18 11:41:02;;;;;;;;;;;;;;;27.73;29.64;101365.05;1692330;84;20573;-79
2022/07/18 11:43:28;;;;;;;;;;;;;;;27.71;29.70;101357.64;1691707;84;20161;-79
2022/07/18 11:46:01;;;;;;;;;;;;;;;27.80;29.73;101352.50;1698558;83;22567;-79
2022/07/18 11:48:27;;;;;;;;;;;;;;;27.75;29.33;101362.06;1699458;83;20230;-80
2022/07/18 11:50:53;;;;;;;;;;;;;;;27.78;29.42;101354.69;1700161;84;20275;-79
2022/07/18 11:53:19;;;;;;;;;;;;;;;27.82;29.38;101351.71;1699685;84;21283;-79
2022/07/18 11:55:45;;;;;;;;;;;;;;;27.80;29.30;101342.90;1699122;84;20144;-79
2022/07/18 11:58:13;;;;;;;;;;;;;;;27.77;29.32;101347.54;1699813;84;22567;-79
2022/07/18 12:00:39;;;;;;;;;;;;;;;27.75;29.32;101342.33;1699786;84;20133;-79
2022/07/18 12:03:19;;;;;;;;;;;;;;;27.77;29.27;101346.17;1687805;85;20176;-79
2022/07/18 12:05:48;;;;;;;;;;;;;;;27.91;29.33;101337.79;1700016;84;20629;-79
2022/07/18 12:08:32;;;;;;;;;;;;;;;28.16;29.31;101335.28;1699814;84;20154;-79
2022/07/18 12:11:35;;;;;;;;;;;;;;;28.10;29.13;101324.00;1699997;84;21819;-80
2022/07/18 12:14:09;;;;;;;;;;;;;;;27.91;29.06;101341.91;1681962;84;20118;-79
2022/07/18 12:16:38;;;;;;;;;;;;;;;27.78;29.08;101331.38;1700378;84;20112;-80
2022/07/18 12:19:14;;;;;;;;;;;;;;;27.82;29.11;101317.44;1718267;83;20678;-79
2022/07/18 12:21:54;;;;;;;;;;;;;;;27.75;29.05;101328.63;1699684;84;20445;-79
2022/07/18 12:24:32;;;;;;;;;;;;;;;27.86;29.10;101322.69;1699745;84;21845;-79
2022/07/18 12:27:23;;;;;;;;;;;;;;;27.99;29.04;101323.60;1699825;84;20184;-79
2022/07/18 12:30:12;;;;;;;;;;;;;;;28.05;28.88;101310.73;1700140;84;20145;-79
2022/07/18 12:32:44;;;;;;;;;;;;;;;28.10;28.78;101313.02;1681119;84;20564;-79
2022/07/18 12:35:18;;;;;;;;;;;;;;;28.34;28.73;101313.98;1700028;84;20163;-79
2022/07/18 12:38:08;;;;;;;;;;;;;;;28.41;28.69;101311.84;1700572;83;21719;-79
2022/07/18 12:40:46;;;;;;;;;;;;;;;28.49;28.52;101303.11;1700270;84;20713;-79
2022/07/18 12:43:18;;;;;;;;;;;;;;;28.35;28.32;101304.67;1700141;84;20098;-79